createdAt,value
2023-01-20T00:01:46.631Z,-1.18
2023-01-20T00:04:19.157Z,-1.34
2023-01-20T00:06:48.012Z,-1.32
2023-01-20T00:09:18.696Z,-1.14
2023-01-20T00:11:47.701Z,-1.37
2023-01-20T00:14:16.244Z,-1.50
2023-01-20T00:16:44.734Z,-1.47
2023-01-20T00:19:16.295Z,-1.28
2023-01-20T00:21:44.996Z,-1.43
2023-01-20T00:24:13.490Z,-1.25
2023-01-20T00:26:42.153Z,-1.49
2023-01-20T00:29:11.153Z,-1.44
2023-01-20T00:31:39.688Z,-1.53
2023-01-20T00:34:08.244Z,-1.16
2023-01-20T00:36:38.292Z,-1.14
2023-01-20T00:39:06.809Z,-0.98
2023-01-20T00:41:35.278Z,-1.06
2023-01-20T00:44:03.930Z,-1.42
2023-01-20T00:46:32.402Z,-1.26
2023-01-20T00:49:01.036Z,-1.06
2023-01-20T00:51:29.522Z,-1.20
2023-01-20T00:53:59.709Z,-1.15
2023-01-20T00:56:28.354Z,-1.34
2023-01-20T00:58:56.804Z,-1.16
2023-01-20T01:01:25.615Z,-1.25
2023-01-20T01:03:55.413Z,-1.03
2023-01-20T01:06:24.110Z,-1.11
2023-01-20T01:08:53.118Z,-1.14
2023-01-20T01:11:23.904Z,-1.03
2023-01-20T01:13:52.245Z,-1.09
2023-01-20T01:16:20.748Z,-1.01
2023-01-20T01:18:49.485Z,-1.01
2023-01-20T01:21:18.777Z,-1.05
2023-01-20T01:23:47.650Z,-1.03
2023-01-20T01:26:16.226Z,-1.13
2023-01-20T01:28:48.930Z,-1.08
2023-01-20T01:31:22.810Z,-1.47
2023-01-20T01:33:51.311Z,-0.96
2023-01-20T01:36:20.118Z,-1.22
2023-01-20T01:38:57.954Z,-1.20
2023-01-20T01:41:27.987Z,-1.26
2023-01-20T01:44:09.653Z,-1.41
2023-01-20T01:46:39.085Z,-1.45
2023-01-20T01:49:13.978Z,-1.63
2023-01-20T01:51:47.094Z,-1.48
2023-01-20T01:54:20.504Z,-1.53
2023-01-20T01:56:51.051Z,-1.74
2023-01-20T01:59:22.237Z,-1.62
2023-01-20T02:01:53.721Z,-1.71
2023-01-20T02:04:25.243Z,-1.75
2023-01-20T02:06:57.754Z,-1.93
2023-01-20T02:09:27.958Z,-1.65
2023-01-20T02:12:00.291Z,-1.81
2023-01-20T02:14:35.525Z,-2.14
2023-01-20T02:17:18.066Z,-1.48
2023-01-20T02:20:55.110Z,-1.36
2023-01-20T02:23:49.740Z,-1.35
2023-01-20T02:26:44.172Z,-1.35
2023-01-20T02:29:57.845Z,-1.14
2023-01-20T02:32:41.537Z,-1.18
2023-01-20T02:35:15.164Z,-1.29
2023-01-20T02:37:52.873Z,-1.50
2023-01-20T02:40:31.945Z,-1.46
2023-01-20T02:43:10.075Z,-1.13
2023-01-20T02:45:47.215Z,-1.14
2023-01-20T02:48:25.772Z,-1.25
2023-01-20T02:51:04.049Z,-1.17
2023-01-20T02:53:40.823Z,-1.34
2023-01-20T02:56:11.131Z,-1.12
2023-01-20T02:58:48.619Z,-1.10
2023-01-20T03:01:25.192Z,-1.26
2023-01-20T03:03:59.458Z,-1.54
2023-01-20T03:06:33.416Z,-1.29
2023-01-20T03:09:08.511Z,-1.49
2023-01-20T03:11:41.972Z,-1.42
2023-01-20T03:14:15.480Z,-1.46
2023-01-20T03:16:48.406Z,-1.52
2023-01-20T03:19:20.614Z,-1.48
2023-01-20T03:21:49.720Z,-1.73
2023-01-20T03:24:18.216Z,-2.03
2023-01-20T03:26:47.161Z,-1.84
2023-01-20T03:29:18.345Z,-1.67
2023-01-20T03:31:52.101Z,-1.67
2023-01-20T03:34:24.280Z,-1.63
2023-01-20T03:36:54.864Z,-1.65
2023-01-20T03:39:24.894Z,-1.73
2023-01-20T03:42:07.228Z,-1.68
2023-01-20T03:44:54.046Z,-1.85
2023-01-20T03:47:42.223Z,-1.90
2023-01-20T03:50:25.268Z,-1.88
2023-01-20T03:53:01.353Z,-1.73
2023-01-20T03:55:37.211Z,-1.73
2023-01-20T03:58:10.900Z,-1.92
2023-01-20T04:00:44.503Z,-1.48
2023-01-20T04:03:19.934Z,-1.45
2023-01-20T04:05:51.039Z,-1.42
2023-01-20T04:08:23.501Z,-1.44
2023-01-20T04:10:53.358Z,-1.68
2023-01-20T04:13:21.966Z,-1.37
2023-01-20T04:15:51.630Z,-1.36
2023-01-20T04:18:24.079Z,-1.34
2023-01-20T04:21:00.628Z,-1.54
2023-01-20T04:23:37.430Z,-1.48
2023-01-20T04:26:06.388Z,-1.56
2023-01-20T04:28:35.481Z,-1.55
2023-01-20T04:31:03.955Z,-1.35
2023-01-20T04:33:32.440Z,-1.17
2023-01-20T04:36:02.289Z,-1.34
2023-01-20T04:38:30.862Z,-1.37
2023-01-20T04:40:59.390Z,-1.48
2023-01-20T04:43:27.820Z,-1.40
2023-01-20T04:45:56.299Z,-1.04
2023-01-20T04:48:24.799Z,-0.99
2023-01-20T04:50:53.112Z,-1.02
2023-01-20T04:53:23.034Z,-0.95
2023-01-20T04:55:51.420Z,-0.94
2023-01-20T04:58:19.881Z,-1.29
2023-01-20T05:00:48.203Z,-1.16
2023-01-20T05:03:16.871Z,-1.22
2023-01-20T05:05:45.254Z,-1.23
2023-01-20T05:08:13.815Z,-1.37
2023-01-20T05:10:43.583Z,-1.35
2023-01-20T05:13:12.064Z,-1.05
2023-01-20T05:15:41.250Z,-1.11
2023-01-20T05:18:09.811Z,-1.14
2023-01-20T05:20:38.266Z,-1.90
2023-01-20T05:23:07.090Z,-1.34
2023-01-20T05:25:35.419Z,-1.31
2023-01-20T05:28:05.731Z,-1.11
2023-01-20T05:30:34.555Z,-1.16
2023-01-20T05:33:03.017Z,-0.95
2023-01-20T05:35:31.475Z,-0.93
2023-01-20T05:37:59.922Z,-1.04
2023-01-20T05:40:28.411Z,-1.13
2023-01-20T05:43:00.501Z,-1.10
2023-01-20T05:45:30.356Z,-0.95
2023-01-20T05:48:00.551Z,-0.92
2023-01-20T05:50:30.468Z,-1.30
2023-01-20T05:52:58.851Z,-0.85
2023-01-20T05:55:27.500Z,-0.88
2023-01-20T05:57:55.935Z,-1.23
2023-01-20T06:00:25.260Z,-1.04
2023-01-20T06:02:55.307Z,-1.03
2023-01-20T06:05:24.136Z,-1.08
2023-01-20T06:07:52.641Z,-1.18
2023-01-20T06:10:21.098Z,-1.46
2023-01-20T06:12:54.058Z,-1.31
2023-01-20T06:15:24.100Z,-1.34
2023-01-20T06:17:56.197Z,-1.26
2023-01-20T06:20:24.631Z,-1.03
2023-01-20T06:22:56.692Z,-1.01
2023-01-20T06:25:25.202Z,-0.87
2023-01-20T06:27:53.577Z,-0.71
2023-01-20T06:30:22.169Z,-0.94
2023-01-20T06:32:50.695Z,-0.85
2023-01-20T06:35:20.468Z,-0.70
2023-01-20T06:37:48.968Z,-1.09
2023-01-20T06:40:18.570Z,-0.75
2023-01-20T06:42:47.035Z,-0.67
2023-01-20T06:45:17.025Z,-1.16
2023-01-20T06:48:00.512Z,-0.96
2023-01-20T06:50:30.499Z,-0.81
2023-01-20T06:52:59.023Z,-0.89
2023-01-20T06:55:28.046Z,-1.02
2023-01-20T06:57:56.663Z,-0.85
2023-01-20T07:00:26.107Z,-0.92
2023-01-20T07:02:54.457Z,-0.87
2023-01-20T07:05:22.837Z,-1.07
2023-01-20T07:07:52.978Z,-0.91
2023-01-20T07:10:21.509Z,-1.09
2023-01-20T07:12:49.900Z,-0.95
2023-01-20T07:15:18.310Z,-1.14
2023-01-20T07:17:46.920Z,-1.03
2023-01-20T07:20:15.884Z,-0.98
2023-01-20T07:22:44.577Z,-0.93
2023-01-20T07:25:14.757Z,-0.97
2023-01-20T07:27:44.089Z,-0.89
2023-01-20T07:30:13.134Z,-1.27
2023-01-20T07:32:41.620Z,-1.08
2023-01-20T07:35:10.858Z,-1.17
2023-01-20T07:37:39.344Z,-1.13
2023-01-20T07:40:10.255Z,-1.14
2023-01-20T07:42:40.360Z,-1.01
2023-01-20T07:45:10.239Z,-0.99
2023-01-20T07:47:38.659Z,-0.99
2023-01-20T07:50:07.885Z,-0.87
2023-01-20T07:52:36.305Z,-0.95
2023-01-20T07:55:05.375Z,-1.15
2023-01-20T07:57:33.814Z,-0.85
2023-01-20T08:00:04.641Z,-1.39
2023-01-20T08:02:39.021Z,-1.15
2023-01-20T08:05:09.009Z,-1.02
2023-01-20T08:07:37.411Z,-0.95
2023-01-20T08:10:07.110Z,-0.94
2023-01-20T08:12:35.420Z,-1.03
2023-01-20T08:15:06.482Z,-0.95
2023-01-20T08:17:34.912Z,-1.06
2023-01-20T08:20:03.422Z,-1.01
2023-01-20T08:22:31.734Z,-1.03
2023-01-20T08:25:00.033Z,-1.01
2023-01-20T08:27:28.559Z,-1.00
2023-01-20T08:29:56.963Z,-0.91
2023-01-20T08:32:26.663Z,-1.08
2023-01-20T08:34:55.062Z,-0.89
2023-01-20T08:37:23.663Z,-1.01
2023-01-20T08:39:51.989Z,-0.96
2023-01-20T08:42:20.405Z,-0.93
2023-01-20T08:44:53.344Z,-0.80
2023-01-20T08:47:21.742Z,-0.81
2023-01-20T08:49:53.584Z,-0.84
2023-01-20T08:52:22.077Z,-0.92
2023-01-20T08:54:53.952Z,-0.86
2023-01-20T08:57:22.262Z,-0.74
2023-01-20T08:59:50.795Z,-0.81
2023-01-20T09:02:19.117Z,-0.89
2023-01-20T09:04:49.666Z,-0.80
2023-01-20T09:07:20.750Z,-0.72
2023-01-20T09:09:49.290Z,-0.98
2023-01-20T09:12:17.599Z,-0.58
2023-01-20T09:14:46.753Z,-0.50
2023-01-20T09:17:15.144Z,-0.49
2023-01-20T09:19:43.596Z,-0.49
2023-01-20T09:22:11.945Z,-0.47
2023-01-20T09:24:41.959Z,-0.42
2023-01-20T09:27:10.453Z,-0.51
2023-01-20T09:29:38.846Z,-0.42
2023-01-20T09:32:07.393Z,-0.34
2023-01-20T09:34:36.302Z,-0.39
2023-01-20T09:37:18.831Z,-0.39
2023-01-20T09:40:06.845Z,-0.23
2023-01-20T09:43:08.853Z,-0.26
2023-01-20T09:45:45.585Z,-0.25
2023-01-20T09:48:39.723Z,-0.37
2023-01-20T09:51:32.737Z,-0.24
2023-01-20T09:54:09.990Z,-0.14
2023-01-20T09:56:48.004Z,-0.40
2023-01-20T09:59:22.073Z,-0.35
2023-01-20T10:01:55.098Z,-0.04
2023-01-20T10:04:32.914Z,-0.16
2023-01-20T10:07:09.110Z,-0.07
2023-01-20T10:09:46.045Z,-0.11
2023-01-20T10:12:23.513Z,-0.04
2023-01-20T10:14:59.569Z,-0.18
2023-01-20T10:17:35.033Z,-0.22
2023-01-20T10:20:08.924Z,-0.11
2023-01-20T10:22:43.927Z,0.06
2023-01-20T10:25:22.051Z,0.09
2023-01-20T10:27:57.222Z,0.10
2023-01-20T10:30:31.824Z,0.20
2023-01-20T10:33:07.092Z,0.09
2023-01-20T10:35:40.467Z,0.07
2023-01-20T10:38:21.331Z,0.27
2023-01-20T10:40:56.720Z,0.06
2023-01-20T10:43:27.594Z,0.01
2023-01-20T10:46:25.064Z,0.25
2023-01-20T10:49:22.724Z,0.33
2023-01-20T10:52:04.455Z,0.42
2023-01-20T10:54:43.257Z,0.22
2023-01-20T10:57:16.319Z,0.05
2023-01-20T10:59:50.447Z,0.38
2023-01-20T11:02:23.983Z,0.55
2023-01-20T11:04:58.805Z,0.30
2023-01-20T11:07:28.807Z,0.65
2023-01-20T11:09:57.453Z,0.12
2023-01-20T11:12:31.413Z,0.58
2023-01-20T11:15:02.544Z,0.60
2023-01-20T11:17:31.251Z,0.83
2023-01-20T11:20:07.518Z,1.01
2023-01-20T11:22:38.795Z,1.24
2023-01-20T11:25:23.691Z,1.29
2023-01-20T11:27:52.952Z,1.34
2023-01-20T11:30:30.893Z,1.87
2023-01-20T11:33:17.328Z,2.03
2023-01-20T11:36:00.878Z,1.72
2023-01-20T11:38:31.736Z,2.00
2023-01-20T11:41:00.672Z,1.93
2023-01-20T11:43:36.230Z,2.08
2023-01-20T11:46:28.740Z,1.89
2023-01-20T11:49:20.361Z,2.18
2023-01-20T11:51:55.657Z,1.54
2023-01-20T11:54:26.661Z,1.86
2023-01-20T11:57:00.027Z,1.77
2023-01-20T11:59:31.381Z,1.58
2023-01-20T12:02:21.249Z,1.18
2023-01-20T12:05:03.850Z,1.31
2023-01-20T12:07:38.587Z,1.34
2023-01-20T12:10:18.736Z,1.12
2023-01-20T12:12:52.795Z,1.31
2023-01-20T12:15:24.789Z,0.96
2023-01-20T12:17:59.987Z,1.23
2023-01-20T12:20:45.659Z,1.36
2023-01-20T12:23:24.917Z,0.76
2023-01-20T12:25:57.942Z,1.40
2023-01-20T12:28:35.274Z,1.48
2023-01-20T12:31:05.888Z,1.52
2023-01-20T12:33:40.152Z,1.57
2023-01-20T12:36:39.568Z,1.25
2023-01-20T12:39:29.487Z,1.28
2023-01-20T12:42:34.451Z,0.80
2023-01-20T12:45:13.846Z,0.71
2023-01-20T12:47:58.472Z,0.73
2023-01-20T12:50:46.389Z,0.71
2023-01-20T12:53:38.991Z,0.94
2023-01-20T12:56:19.858Z,0.32
2023-01-20T12:58:58.501Z,0.99
2023-01-20T13:01:55.613Z,0.90
2023-01-20T13:05:26.003Z,0.73
2023-01-20T13:08:08.524Z,0.73
2023-01-20T13:11:05.353Z,0.65
2023-01-20T13:13:56.016Z,0.03
2023-01-20T13:16:37.658Z,0.44
2023-01-20T13:19:14.729Z,0.32
2023-01-20T13:21:43.287Z,0.19
2023-01-20T13:24:24.347Z,0.22
2023-01-20T13:26:53.450Z,-0.12
2023-01-20T13:29:23.570Z,0.16
2023-01-20T13:31:54.015Z,-0.72
2023-01-20T13:34:36.463Z,-0.07
2023-01-20T13:37:39.507Z,-0.07
2023-01-20T13:40:58.740Z,0.03
2023-01-20T13:43:46.979Z,-0.12
2023-01-20T13:46:50.048Z,-0.46
2023-01-20T13:49:50.334Z,-0.36
2023-01-20T13:53:25.702Z,-0.24
2023-01-20T13:56:26.712Z,-0.25
2023-01-20T13:58:55.460Z,-0.25
2023-01-20T14:01:23.913Z,-0.04
2023-01-20T14:04:04.841Z,-0.44
2023-01-20T14:06:35.891Z,-0.47
2023-01-20T14:09:19.892Z,-0.61
2023-01-20T14:11:51.914Z,-0.55
2023-01-20T14:14:22.961Z,-0.80
2023-01-20T14:16:52.252Z,-0.20
2023-01-20T14:19:25.375Z,-0.23
2023-01-20T14:21:56.500Z,-0.44
2023-01-20T14:24:31.927Z,-1.13
2023-01-20T14:27:12.890Z,-1.10
2023-01-20T14:29:41.408Z,-0.78
2023-01-20T14:32:22.567Z,-0.33
2023-01-20T14:34:51.667Z,-0.26
2023-01-20T14:37:27.781Z,-0.50
2023-01-20T14:40:01.063Z,-0.19
2023-01-20T14:42:31.141Z,-0.50
2023-01-20T14:45:00.031Z,-0.16
2023-01-20T14:47:31.412Z,-0.08
2023-01-20T14:49:59.994Z,-0.27
2023-01-20T14:52:32.418Z,-0.20
2023-01-20T14:55:02.259Z,0.13
2023-01-20T14:57:34.004Z,0.07
2023-01-20T15:00:20.705Z,-0.23
2023-01-20T15:03:05.357Z,-0.03
2023-01-20T15:05:40.486Z,-0.12
2023-01-20T15:08:26.326Z,-0.54
2023-01-20T15:11:23.923Z,-0.25
2023-01-20T15:14:13.648Z,-0.50
2023-01-20T15:16:51.094Z,-0.88
2023-01-20T15:19:46.689Z,-0.33
2023-01-20T15:22:22.457Z,-0.78
2023-01-20T15:24:52.072Z,-1.04
2023-01-20T15:27:34.371Z,-0.41
2023-01-20T15:30:14.286Z,-0.63
2023-01-20T15:32:43.054Z,-0.34
2023-01-20T15:35:15.242Z,-0.68
2023-01-20T15:37:45.331Z,-0.77
2023-01-20T15:40:20.236Z,-0.46
2023-01-20T15:42:53.661Z,-0.66
2023-01-20T15:45:22.301Z,-0.27
2023-01-20T15:47:50.674Z,-0.38
2023-01-20T15:50:22.642Z,-0.46
2023-01-20T15:52:51.633Z,-0.83
2023-01-20T15:55:21.023Z,-0.40
2023-01-20T15:57:53.128Z,-0.29
2023-01-20T16:00:24.772Z,-0.50
2023-01-20T16:02:53.212Z,-0.78
2023-01-20T16:05:22.125Z,-0.33
2023-01-20T16:07:50.633Z,-0.38
2023-01-20T16:10:21.029Z,-0.33
2023-01-20T16:12:50.833Z,-0.30
2023-01-20T16:15:20.117Z,-0.27
2023-01-20T16:17:50.917Z,-0.50
2023-01-20T16:20:25.647Z,-0.59
2023-01-20T16:22:54.277Z,-0.56
2023-01-20T16:25:23.210Z,-0.51
2023-01-20T16:27:52.960Z,-0.51
2023-01-20T16:30:24.691Z,-0.19
2023-01-20T16:32:53.244Z,-0.31
2023-01-20T16:35:23.606Z,-0.22
2023-01-20T16:37:52.412Z,-0.22
2023-01-20T16:40:22.715Z,-0.50
2023-01-20T16:42:56.962Z,-0.88
2023-01-20T16:45:29.417Z,-0.51
2023-01-20T16:47:58.105Z,-0.30
2023-01-20T16:50:28.549Z,-0.35
2023-01-20T16:52:57.277Z,-0.88
2023-01-20T16:55:25.727Z,-0.24
2023-01-20T16:57:55.415Z,-0.21
2023-01-20T17:00:24.432Z,-0.47
2023-01-20T17:02:53.291Z,-0.16
2023-01-20T17:05:25.639Z,-0.13
2023-01-20T17:07:56.885Z,-0.19
2023-01-20T17:10:27.024Z,-0.17
2023-01-20T17:12:58.299Z,-0.15
2023-01-20T17:15:27.553Z,-0.13
2023-01-20T17:17:59.879Z,-0.56
2023-01-20T17:20:31.018Z,-0.39
2023-01-20T17:22:59.538Z,-0.18
2023-01-20T17:25:28.407Z,-0.13
2023-01-20T17:27:58.227Z,-0.20
2023-01-20T17:30:26.966Z,-0.59
2023-01-20T17:32:55.628Z,-0.43
2023-01-20T17:35:24.022Z,-0.50
2023-01-20T17:37:52.600Z,-0.73
2023-01-20T17:40:21.110Z,-0.36
2023-01-20T17:42:53.023Z,-0.47
2023-01-20T17:45:22.759Z,-0.26
2023-01-20T17:47:52.231Z,-0.13
2023-01-20T17:50:20.881Z,-0.48
2023-01-20T17:52:49.723Z,-0.18
2023-01-20T17:55:18.608Z,-0.12
2023-01-20T17:57:47.022Z,-0.56
2023-01-20T18:00:16.443Z,-0.20
2023-01-20T18:02:46.314Z,0.02
2023-01-20T18:05:15.301Z,-0.34
2023-01-20T18:07:43.629Z,-0.29
2023-01-20T18:10:13.102Z,-0.26
2023-01-20T18:12:41.730Z,-0.86
2023-01-20T18:15:10.801Z,-0.44
2023-01-20T18:17:40.716Z,-0.51
2023-01-20T18:20:12.749Z,-0.50
2023-01-20T18:22:41.284Z,-0.98
2023-01-20T18:25:10.827Z,-0.55
2023-01-20T18:27:39.358Z,-0.46
2023-01-20T18:30:09.668Z,-0.90
2023-01-20T18:32:38.016Z,-0.83
2023-01-20T18:35:07.380Z,-0.92
2023-01-20T18:37:40.423Z,-0.71
2023-01-20T18:40:11.777Z,-0.79
2023-01-20T18:42:40.397Z,-0.69
2023-01-20T18:45:10.160Z,-0.61
2023-01-20T18:47:38.534Z,-0.51
2023-01-20T18:50:07.927Z,-0.64
2023-01-20T18:52:38.986Z,-0.43
2023-01-20T18:55:09.533Z,-0.50
2023-01-20T18:57:37.866Z,-0.44
2023-01-20T19:00:07.768Z,-0.30
2023-01-20T19:02:36.198Z,-0.45
2023-01-20T19:05:05.035Z,-0.39
2023-01-20T19:07:33.327Z,-0.33
2023-01-20T19:10:03.072Z,-0.20
2023-01-20T19:12:31.693Z,-0.22
2023-01-20T19:15:00.162Z,-0.14
2023-01-20T19:17:30.701Z,-0.27
2023-01-20T19:19:59.051Z,-0.25
2023-01-20T19:22:27.513Z,-0.38
2023-01-20T19:24:55.898Z,-0.20
2023-01-20T19:27:26.454Z,-0.00
2023-01-20T19:29:55.012Z,-0.31
2023-01-20T19:32:23.394Z,0.03
2023-01-20T19:34:51.774Z,-0.18
2023-01-20T19:37:20.146Z,-0.73
2023-01-20T19:39:49.036Z,-0.55
2023-01-20T19:42:17.523Z,-0.82
2023-01-20T19:44:47.298Z,-0.93
2023-01-20T19:47:15.843Z,-0.94
2023-01-20T19:49:44.283Z,-0.93
2023-01-20T19:52:12.696Z,-1.09
2023-01-20T19:54:41.019Z,-1.01
2023-01-20T19:57:09.751Z,-1.05
2023-01-20T19:59:40.863Z,-1.24
2023-01-20T20:02:11.501Z,-1.45
2023-01-20T20:04:40.018Z,-1.39
2023-01-20T20:07:09.058Z,-1.52
2023-01-20T20:09:38.226Z,-1.18
2023-01-20T20:12:07.778Z,-1.63
2023-01-20T20:14:36.358Z,-1.35
2023-01-20T20:17:05.152Z,-1.36
2023-01-20T20:19:35.077Z,-1.38
2023-01-20T20:22:03.513Z,-1.27
2023-01-20T20:24:31.951Z,-1.68
2023-01-20T20:27:00.378Z,-1.82
2023-01-20T20:29:28.885Z,-1.34
2023-01-20T20:31:57.395Z,-1.49
2023-01-20T20:34:25.991Z,-1.50
2023-01-20T20:36:55.809Z,-1.64
2023-01-20T20:39:24.166Z,-1.63
2023-01-20T20:41:52.509Z,-1.63
2023-01-20T20:44:21.003Z,-1.86
2023-01-20T20:46:49.687Z,-1.65
2023-01-20T20:49:19.048Z,-1.71
2023-01-20T20:51:47.786Z,-1.77
2023-01-20T20:54:17.821Z,-1.63
2023-01-20T20:56:46.752Z,-1.67
2023-01-20T20:59:15.369Z,-1.74
2023-01-20T21:01:43.852Z,-1.89
2023-01-20T21:04:12.312Z,-1.79
2023-01-20T21:06:40.668Z,-1.76
2023-01-20T21:09:09.132Z,-1.81
2023-01-20T21:11:39.693Z,-2.04
2023-01-20T21:14:09.338Z,-2.00
2023-01-20T21:16:38.093Z,-1.76
2023-01-20T21:19:06.714Z,-2.14
2023-01-20T21:21:35.192Z,-1.82
2023-01-20T21:24:04.333Z,-2.29
2023-01-20T21:26:32.787Z,-1.89
2023-01-20T21:29:03.777Z,-2.19
2023-01-20T21:31:34.673Z,-1.86
2023-01-20T21:34:03.736Z,-2.16
2023-01-20T21:36:34.505Z,-2.15
2023-01-20T21:39:03.146Z,-2.08
2023-01-20T21:41:31.605Z,-2.09
2023-01-20T21:44:17.926Z,-2.40
2023-01-20T21:46:49.408Z,-2.38
2023-01-20T21:49:35.350Z,-2.08
2023-01-20T21:52:21.463Z,-2.10
2023-01-20T21:54:49.908Z,-2.41
2023-01-20T21:57:18.487Z,-2.22
2023-01-20T21:59:47.156Z,-2.21
2023-01-20T22:02:17.212Z,-2.24
2023-01-20T22:04:46.782Z,-2.13
2023-01-20T22:07:16.778Z,-2.31
2023-01-20T22:09:45.532Z,-2.10
2023-01-20T22:12:14.878Z,-2.48
2023-01-20T22:14:43.640Z,-2.18
2023-01-20T22:17:13.455Z,-2.49
2023-01-20T22:19:43.931Z,-2.30
2023-01-20T22:22:15.012Z,-2.36
2023-01-20T22:24:43.793Z,-2.51
2023-01-20T22:27:12.263Z,-2.33
2023-01-20T22:29:40.946Z,-2.39
2023-01-20T22:32:09.341Z,-2.49
2023-01-20T22:34:37.737Z,-2.42
2023-01-20T22:37:07.497Z,-2.59
2023-01-20T22:39:36.029Z,-2.74
2023-01-20T22:42:04.484Z,-2.51
2023-01-20T22:44:32.896Z,-2.59
2023-01-20T22:47:01.783Z,-2.59
2023-01-20T22:49:30.185Z,-2.63
2023-01-20T22:51:58.654Z,-2.63
2023-01-20T22:54:28.562Z,-2.74
2023-01-20T22:56:57.008Z,-2.75
2023-01-20T22:59:25.474Z,-2.74
2023-01-20T23:01:53.856Z,-2.71
2023-01-20T23:04:22.210Z,-2.92
2023-01-20T23:06:50.591Z,-2.78
2023-01-20T23:09:18.962Z,-2.60
2023-01-20T23:11:49.583Z,-2.94
2023-01-20T23:14:18.152Z,-2.68
2023-01-20T23:16:46.594Z,-2.69
2023-01-20T23:19:15.069Z,-2.78
2023-01-20T23:21:43.457Z,-2.80
2023-01-20T23:24:11.851Z,-2.79
2023-01-20T23:26:40.352Z,-3.12
2023-01-20T23:29:10.297Z,-3.05
2023-01-20T23:31:38.759Z,-3.17
2023-01-20T23:34:07.143Z,-3.02
2023-01-20T23:36:35.518Z,-3.27
2023-01-20T23:39:04.043Z,-3.07
2023-01-20T23:41:32.509Z,-3.12
2023-01-20T23:44:00.986Z,-3.30
2023-01-20T23:46:30.791Z,-2.77
2023-01-20T23:48:59.221Z,-3.03
2023-01-20T23:51:27.569Z,-2.71
2023-01-20T23:53:56.879Z,-2.79
2023-01-20T23:56:26.484Z,-3.11
2023-01-20T23:58:54.850Z,-3.39
